createdAt,value
2022-11-04T00:00:29.629Z,1.77
2022-11-04T00:02:59.201Z,1.80
2022-11-04T00:05:28.088Z,2.30
2022-11-04T00:08:15.517Z,1.27
2022-11-04T00:11:02.495Z,1.25
2022-11-04T00:13:31.739Z,1.80
2022-11-04T00:16:22.179Z,1.33
2022-11-04T00:18:50.884Z,1.98
2022-11-04T00:21:38.465Z,1.48
2022-11-04T00:24:26.368Z,1.40
2022-11-04T00:27:13.796Z,1.60
2022-11-04T00:29:42.700Z,1.35
2022-11-04T00:32:30.410Z,2.00
2022-11-04T00:34:59.096Z,1.25
2022-11-04T00:37:28.298Z,1.75
2022-11-04T00:39:56.544Z,1.80
2022-11-04T00:42:25.399Z,1.30
2022-11-04T00:44:54.238Z,1.80
2022-11-04T00:47:22.905Z,1.92
2022-11-04T00:49:51.993Z,1.88
2022-11-04T00:52:21.465Z,1.95
2022-11-04T00:54:50.129Z,1.48
2022-11-04T00:57:18.863Z,1.33
2022-11-04T00:59:47.615Z,1.90
2022-11-04T01:02:17.012Z,1.40
2022-11-04T01:04:45.886Z,2.40
2022-11-04T01:07:14.170Z,1.13
2022-11-04T01:09:42.599Z,1.40
2022-11-04T01:12:11.302Z,1.98
2022-11-04T01:14:40.009Z,1.10
2022-11-04T01:17:08.739Z,1.33
2022-11-04T01:19:37.672Z,1.45
2022-11-04T01:22:06.836Z,2.22
2022-11-04T01:24:39.044Z,1.30
2022-11-04T01:27:08.523Z,1.25
2022-11-04T01:29:36.511Z,1.55
2022-11-04T01:32:05.465Z,1.65
2022-11-04T01:34:37.868Z,1.90
2022-11-04T01:37:09.199Z,1.73
2022-11-04T01:39:37.823Z,1.70
2022-11-04T01:42:06.558Z,1.23
2022-11-04T01:44:44.640Z,1.55
2022-11-04T01:47:32.362Z,1.30
2022-11-04T01:50:31.921Z,1.50
2022-11-04T01:53:11.966Z,1.20
2022-11-04T01:55:57.623Z,1.05
2022-11-04T01:58:31.431Z,1.50
2022-11-04T02:01:00.786Z,1.20
2022-11-04T02:03:36.750Z,1.42
2022-11-04T02:06:08.098Z,1.92
2022-11-04T02:08:37.482Z,1.83
2022-11-04T02:11:06.246Z,1.42
2022-11-04T02:13:37.697Z,1.40
2022-11-04T02:16:14.117Z,1.63
2022-11-04T02:19:17.252Z,1.20
2022-11-04T02:22:10.366Z,1.52
2022-11-04T02:25:05.482Z,2.00
2022-11-04T02:27:37.434Z,1.42
2022-11-04T02:30:05.701Z,1.38
2022-11-04T02:33:10.343Z,1.48
2022-11-04T02:36:10.663Z,1.45
2022-11-04T02:38:52.009Z,1.10
2022-11-04T02:41:43.698Z,2.28
2022-11-04T02:44:39.388Z,1.65
2022-11-04T02:47:17.617Z,1.55
2022-11-04T02:49:49.249Z,1.73
2022-11-04T02:52:28.593Z,1.27
2022-11-04T02:55:03.842Z,1.65
2022-11-04T02:57:37.211Z,0.98
2022-11-04T03:00:09.976Z,1.30
2022-11-04T03:02:44.594Z,1.37
2022-11-04T03:05:18.498Z,1.38
2022-11-04T03:07:51.519Z,1.38
2022-11-04T03:10:44.530Z,1.63
2022-11-04T03:13:30.682Z,1.00
2022-11-04T03:16:10.673Z,2.47
2022-11-04T03:18:58.659Z,1.10
2022-11-04T03:21:29.839Z,1.27
2022-11-04T03:23:58.521Z,1.50
2022-11-04T03:26:32.927Z,2.20
2022-11-04T03:29:03.996Z,1.67
2022-11-04T03:31:51.652Z,1.55
2022-11-04T03:34:20.316Z,1.17
2022-11-04T03:36:54.280Z,1.42
2022-11-04T03:39:23.009Z,1.15
2022-11-04T03:41:58.783Z,1.48
2022-11-04T03:44:29.088Z,2.08
2022-11-04T03:46:57.918Z,1.63
2022-11-04T03:49:27.581Z,1.13
2022-11-04T03:54:25.137Z,1.20
2022-11-04T03:57:08.942Z,2.08
2022-11-04T04:02:29.125Z,1.35
2022-11-04T04:04:57.767Z,0.90
2022-11-04T04:07:41.740Z,1.55
2022-11-04T04:10:43.446Z,1.38
2022-11-04T04:13:20.928Z,1.05
2022-11-04T04:16:12.527Z,1.48
2022-11-04T04:18:54.097Z,1.40
2022-11-04T04:21:35.217Z,1.30
2022-11-04T04:24:26.608Z,2.08
2022-11-04T04:27:16.648Z,1.30
2022-11-04T04:29:47.252Z,1.50
2022-11-04T04:32:17.960Z,1.33
2022-11-04T04:34:46.362Z,1.63
2022-11-04T04:37:28.630Z,1.90
2022-11-04T04:40:23.864Z,1.40
2022-11-04T04:43:23.176Z,1.50
2022-11-04T04:45:55.698Z,1.35
2022-11-04T04:48:24.601Z,1.15
2022-11-04T04:50:58.412Z,1.08
2022-11-04T04:53:27.298Z,1.75
2022-11-04T04:55:56.163Z,2.03
2022-11-04T04:58:24.804Z,2.38
2022-11-04T05:00:53.868Z,1.92
2022-11-04T05:03:22.650Z,1.45
2022-11-04T05:05:52.676Z,1.15
2022-11-04T05:08:23.620Z,2.25
2022-11-04T05:10:52.232Z,1.00
2022-11-04T05:13:31.200Z,1.02
2022-11-04T05:16:10.724Z,1.75
2022-11-04T05:18:39.818Z,1.52
2022-11-04T05:21:11.866Z,1.20
2022-11-04T05:23:41.378Z,1.40
2022-11-04T05:26:10.624Z,1.45
2022-11-04T05:28:40.167Z,1.75
2022-11-04T05:31:09.009Z,1.65
2022-11-04T05:33:37.742Z,1.55
2022-11-04T05:36:16.385Z,1.63
2022-11-04T05:38:45.640Z,1.88
2022-11-04T05:41:27.003Z,1.35
2022-11-04T05:43:57.391Z,1.73
2022-11-04T05:46:26.683Z,1.50
2022-11-04T05:48:55.692Z,1.30
2022-11-04T05:51:27.054Z,1.08
2022-11-04T05:53:55.864Z,1.65
2022-11-04T05:56:24.650Z,1.38
2022-11-04T05:58:53.469Z,1.58
2022-11-04T06:01:31.739Z,1.40
2022-11-04T06:04:02.080Z,1.35
2022-11-04T06:06:34.705Z,1.45
2022-11-04T06:09:04.735Z,1.73
2022-11-04T06:11:35.450Z,1.58
2022-11-04T06:14:04.625Z,1.50
2022-11-04T06:16:33.314Z,1.65
2022-11-04T06:19:06.093Z,0.95
2022-11-04T06:21:38.649Z,2.20
2022-11-04T06:24:07.555Z,1.60
2022-11-04T06:26:36.737Z,2.30
2022-11-04T06:29:05.722Z,1.83
2022-11-04T06:31:34.294Z,1.75
2022-11-04T06:34:02.820Z,1.67
2022-11-04T06:36:31.706Z,1.27
2022-11-04T06:39:04.582Z,1.67
2022-11-04T06:41:33.867Z,1.40
2022-11-04T06:44:02.708Z,1.55
2022-11-04T06:46:42.722Z,2.65
2022-11-04T06:49:22.017Z,2.20
2022-11-04T06:51:51.852Z,1.40
2022-11-04T06:54:20.899Z,1.77
2022-11-04T06:56:50.375Z,2.35
2022-11-04T06:59:22.089Z,2.33
2022-11-04T07:01:53.308Z,2.00
2022-11-04T07:04:21.945Z,1.65
2022-11-04T07:06:50.651Z,2.33
2022-11-04T07:09:19.760Z,2.25
2022-11-04T07:11:48.598Z,1.63
2022-11-04T07:14:17.305Z,1.65
2022-11-04T07:16:46.008Z,1.33
2022-11-04T07:19:14.767Z,2.15
2022-11-04T07:21:44.378Z,1.55
2022-11-04T07:24:13.215Z,2.03
2022-11-04T07:26:43.514Z,2.00
2022-11-04T07:29:12.675Z,2.72
2022-11-04T07:31:41.406Z,1.58
2022-11-04T07:34:10.001Z,1.65
2022-11-04T07:36:38.724Z,2.28
2022-11-04T07:39:08.485Z,1.25
2022-11-04T07:41:36.977Z,1.85
2022-11-04T07:44:07.040Z,1.83
2022-11-04T07:46:36.335Z,1.80
2022-11-04T07:49:05.095Z,1.30
2022-11-04T07:51:36.339Z,1.67
2022-11-04T07:54:05.537Z,2.75
2022-11-04T07:56:34.208Z,1.83
2022-11-04T07:59:02.879Z,2.05
2022-11-04T08:01:31.377Z,2.00
2022-11-04T08:04:01.033Z,2.33
2022-11-04T08:06:29.461Z,2.10
2022-11-04T08:09:00.240Z,2.08
2022-11-04T08:11:29.578Z,2.92
2022-11-04T08:13:58.305Z,1.67
2022-11-04T08:16:31.579Z,1.85
2022-11-04T08:19:03.999Z,1.40
2022-11-04T08:21:35.622Z,1.88
2022-11-04T08:24:07.563Z,2.03
2022-11-04T08:26:36.613Z,1.52
2022-11-04T08:29:09.440Z,1.75
2022-11-04T08:31:38.780Z,1.92
2022-11-04T08:34:09.827Z,1.40
2022-11-04T08:36:42.170Z,1.52
2022-11-04T08:39:11.604Z,2.60
2022-11-04T08:41:43.325Z,1.83
2022-11-04T08:44:13.743Z,2.38
2022-11-04T08:46:44.567Z,2.13
2022-11-04T08:49:17.759Z,2.60
2022-11-04T08:51:56.395Z,2.00
2022-11-04T08:54:26.646Z,1.90
2022-11-04T08:56:55.864Z,2.03
2022-11-04T08:59:26.605Z,1.60
2022-11-04T09:01:55.501Z,1.83
2022-11-04T09:04:24.199Z,1.85
2022-11-04T09:06:53.647Z,2.67
2022-11-04T09:09:23.561Z,2.25
2022-11-04T09:11:52.178Z,2.67
2022-11-04T09:14:20.973Z,2.35
2022-11-04T09:16:49.654Z,2.65
2022-11-04T09:19:18.549Z,2.85
2022-11-04T09:21:47.232Z,1.85
2022-11-04T09:24:15.952Z,2.40
2022-11-04T09:26:46.081Z,2.35
2022-11-04T09:29:14.874Z,2.05
2022-11-04T09:31:44.358Z,1.88
2022-11-04T09:34:13.089Z,2.30
2022-11-04T09:36:41.928Z,1.90
2022-11-04T09:39:10.977Z,2.42
2022-11-04T09:42:04.059Z,2.08
2022-11-04T09:44:59.675Z,1.55
2022-11-04T09:47:28.126Z,2.20
2022-11-04T09:50:00.709Z,2.33
2022-11-04T09:52:43.592Z,2.60
2022-11-04T09:55:43.063Z,1.90
2022-11-04T09:58:16.072Z,2.15
2022-11-04T10:00:52.765Z,1.48
2022-11-04T10:03:45.504Z,2.08
2022-11-04T10:06:51.138Z,1.83
2022-11-04T10:09:38.194Z,1.75
2022-11-04T10:12:39.292Z,2.08
2022-11-04T10:15:40.770Z,2.13
2022-11-04T10:18:24.258Z,2.13
2022-11-04T10:21:20.055Z,2.55
2022-11-04T10:24:09.385Z,4.45
2022-11-04T10:26:48.738Z,1.23
2022-11-04T10:29:50.172Z,2.30
2022-11-04T10:32:22.611Z,1.85
2022-11-04T10:35:18.137Z,2.50
2022-11-04T10:37:50.632Z,1.83
2022-11-04T10:40:26.887Z,1.90
2022-11-04T10:42:56.315Z,2.72
2022-11-04T10:45:32.550Z,1.63
2022-11-04T10:48:17.155Z,2.25
2022-11-04T10:50:58.809Z,1.90
2022-11-04T10:53:33.338Z,1.63
2022-11-04T10:56:21.370Z,2.40
2022-11-04T10:58:50.577Z,2.20
2022-11-04T11:01:25.243Z,2.10
2022-11-04T11:03:54.335Z,2.05
2022-11-04T11:06:31.904Z,2.10
2022-11-04T11:09:22.289Z,2.33
2022-11-04T11:11:53.302Z,1.67
2022-11-04T11:14:34.953Z,2.25
2022-11-04T11:17:43.896Z,2.00
2022-11-04T11:20:16.540Z,3.08
2022-11-04T11:22:48.227Z,1.63
2022-11-04T11:25:30.064Z,1.92
2022-11-04T11:28:04.032Z,2.33
2022-11-04T11:30:38.506Z,2.40
2022-11-04T11:33:17.977Z,1.90
2022-11-04T11:36:04.128Z,1.95
2022-11-04T11:38:35.308Z,2.35
2022-11-04T11:41:29.231Z,2.28
2022-11-04T11:44:00.288Z,2.25
2022-11-04T11:46:32.792Z,2.55
2022-11-04T11:49:06.433Z,3.08
2022-11-04T11:51:38.147Z,2.13
2022-11-04T11:54:34.013Z,2.13
2022-11-04T11:57:15.068Z,2.42
2022-11-04T12:02:59.426Z,1.70
2022-11-04T12:09:23.046Z,1.90
2022-11-04T12:12:04.074Z,2.95
2022-11-04T12:15:16.620Z,1.75
2022-11-04T12:18:08.288Z,2.25
2022-11-04T12:20:43.080Z,2.05
2022-11-04T12:23:23.738Z,2.45
2022-11-04T12:26:07.790Z,2.05
2022-11-04T12:29:16.586Z,1.80
2022-11-04T12:32:17.715Z,1.52
2022-11-04T12:34:58.177Z,1.60
2022-11-04T12:37:38.303Z,1.90
2022-11-04T12:40:33.794Z,1.85
2022-11-04T12:43:12.929Z,2.58
2022-11-04T12:46:02.627Z,2.40
2022-11-04T12:48:57.858Z,1.55
2022-11-04T12:51:28.704Z,1.48
2022-11-04T12:54:10.622Z,1.65
2022-11-04T12:56:42.273Z,1.52
2022-11-04T12:59:51.780Z,1.50
2022-11-04T13:02:50.594Z,1.67
2022-11-04T13:05:53.759Z,2.45
2022-11-04T13:08:48.259Z,2.00
2022-11-04T13:11:42.577Z,1.60
2022-11-04T13:14:21.660Z,2.35
2022-11-04T13:16:56.254Z,2.45
2022-11-04T13:19:44.291Z,1.65
2022-11-04T13:22:24.922Z,1.75
2022-11-04T13:24:59.800Z,2.10
2022-11-04T13:27:38.988Z,1.42
2022-11-04T13:30:34.301Z,2.03
2022-11-04T13:33:05.759Z,1.17
2022-11-04T13:36:12.001Z,1.52
2022-11-04T13:38:53.696Z,2.10
2022-11-04T13:41:36.981Z,1.20
2022-11-04T13:44:15.452Z,1.60
2022-11-04T13:46:50.811Z,2.05
2022-11-04T13:49:31.895Z,1.10
2022-11-04T13:52:10.073Z,1.65
2022-11-04T13:55:07.299Z,1.00
2022-11-04T13:57:51.118Z,1.85
2022-11-04T14:03:22.828Z,1.20
2022-11-04T14:06:07.212Z,1.52
2022-11-04T14:08:36.832Z,1.63
2022-11-04T14:11:11.759Z,1.50
2022-11-04T14:13:47.932Z,2.20
2022-11-04T14:16:25.712Z,1.60
2022-11-04T14:18:56.035Z,1.58
2022-11-04T14:21:28.407Z,1.70
2022-11-04T14:24:05.809Z,1.30
2022-11-04T14:26:50.391Z,1.80
2022-11-04T14:29:26.662Z,1.67
2022-11-04T14:31:58.431Z,1.48
2022-11-04T14:34:31.602Z,1.60
2022-11-04T14:37:07.053Z,1.85
2022-11-04T14:39:42.608Z,2.28
2022-11-04T14:42:15.760Z,1.80
2022-11-04T14:44:49.306Z,3.42
2022-11-04T14:47:23.407Z,2.45
2022-11-04T14:50:18.352Z,2.15
2022-11-04T14:52:56.605Z,2.10
2022-11-04T14:55:34.878Z,2.15
2022-11-04T14:58:29.707Z,1.90
2022-11-04T15:01:03.084Z,2.53
2022-11-04T15:06:40.810Z,2.47
2022-11-04T15:09:26.640Z,2.10
2022-11-04T15:12:42.705Z,2.20
2022-11-04T15:15:32.856Z,2.05
2022-11-04T15:18:06.949Z,2.58
2022-11-04T15:20:40.116Z,2.78
2022-11-04T15:23:14.596Z,1.90
2022-11-04T15:25:51.804Z,2.42
2022-11-04T15:28:35.923Z,2.42
2022-11-04T15:31:18.894Z,2.97
2022-11-04T15:33:50.986Z,2.10
2022-11-04T15:36:34.686Z,2.45
2022-11-04T15:39:08.976Z,2.63
2022-11-04T15:41:58.738Z,1.80
2022-11-04T15:44:30.371Z,2.55
2022-11-04T15:47:01.881Z,2.33
2022-11-04T15:49:33.453Z,2.10
2022-11-04T15:52:25.079Z,2.70
2022-11-04T15:54:56.176Z,2.42
2022-11-04T15:57:29.376Z,3.63
2022-11-04T16:00:10.124Z,2.35
2022-11-04T16:02:50.447Z,3.53
2022-11-04T16:05:41.350Z,2.50
2022-11-04T16:08:29.762Z,2.42
2022-11-04T16:11:30.710Z,2.53
2022-11-04T16:14:27.979Z,2.28
2022-11-04T16:16:56.807Z,2.53
2022-11-04T16:19:29.566Z,2.17
2022-11-04T16:22:10.700Z,2.97
2022-11-04T16:24:42.307Z,3.30
2022-11-04T16:27:20.223Z,2.60
2022-11-04T16:30:09.182Z,2.72
2022-11-04T16:32:49.626Z,2.85
2022-11-04T16:35:29.923Z,2.42
2022-11-04T16:38:02.348Z,1.98
2022-11-04T16:40:31.080Z,2.40
2022-11-04T16:42:59.938Z,3.00
2022-11-04T16:45:32.722Z,2.80
2022-11-04T16:48:01.817Z,2.63
2022-11-04T16:50:33.455Z,2.72
2022-11-04T16:53:05.124Z,3.45
2022-11-04T16:55:34.214Z,2.50
2022-11-04T16:58:06.351Z,2.83
2022-11-04T17:00:35.439Z,2.70
2022-11-04T17:03:25.971Z,2.40
2022-11-04T17:05:57.396Z,3.10
2022-11-04T17:08:27.883Z,2.80
2022-11-04T17:10:56.796Z,2.70
2022-11-04T17:13:25.589Z,2.53
2022-11-04T17:15:54.303Z,2.97
2022-11-04T17:18:23.127Z,2.97
2022-11-04T17:20:56.277Z,3.00
2022-11-04T17:23:25.775Z,2.65
2022-11-04T17:25:54.934Z,2.63
2022-11-04T17:28:23.741Z,2.28
2022-11-04T17:30:52.296Z,2.17
2022-11-04T17:33:21.930Z,2.67
2022-11-04T17:35:52.814Z,3.10
2022-11-04T17:38:21.890Z,2.78
2022-11-04T17:41:11.654Z,2.88
2022-11-04T17:43:58.749Z,3.03
2022-11-04T17:46:36.935Z,2.20
2022-11-04T17:49:13.055Z,2.85
2022-11-04T17:51:43.490Z,2.58
2022-11-04T17:54:13.060Z,2.40
2022-11-04T17:56:42.301Z,2.78
2022-11-04T17:59:12.432Z,2.25
2022-11-04T18:01:42.563Z,2.22
2022-11-04T18:04:16.686Z,2.13
2022-11-04T18:06:46.257Z,2.42
2022-11-04T18:09:17.065Z,2.10
2022-11-04T18:12:05.860Z,1.75
2022-11-04T18:14:34.382Z,1.98
2022-11-04T18:17:03.557Z,2.50
2022-11-04T18:19:35.133Z,1.83
2022-11-04T18:22:04.409Z,1.65
2022-11-04T18:24:33.204Z,1.98
2022-11-04T18:27:02.357Z,2.00
2022-11-04T18:29:31.050Z,1.90
2022-11-04T18:32:00.014Z,2.20
2022-11-04T18:34:28.482Z,2.10
2022-11-04T18:36:58.297Z,2.30
2022-11-04T18:39:27.148Z,3.13
2022-11-04T18:41:55.984Z,2.10
2022-11-04T18:44:26.114Z,2.15
2022-11-04T18:46:54.798Z,2.20
2022-11-04T18:49:23.885Z,2.22
2022-11-04T18:51:52.576Z,1.70
2022-11-04T18:54:21.498Z,1.98
2022-11-04T18:56:50.211Z,1.80
2022-11-04T18:59:19.172Z,1.88
2022-11-04T19:01:47.970Z,1.85
2022-11-04T19:04:16.836Z,1.60
2022-11-04T19:06:47.028Z,1.80
2022-11-04T19:12:25.896Z,1.77
2022-11-04T19:14:54.859Z,1.63
2022-11-04T19:17:24.347Z,1.88
2022-11-04T19:19:53.068Z,2.08
2022-11-04T19:22:21.671Z,1.75
2022-11-04T19:24:50.556Z,1.70
2022-11-04T19:27:21.035Z,1.92
2022-11-04T19:29:49.769Z,1.75
2022-11-04T19:32:18.480Z,3.05
2022-11-04T19:34:47.379Z,1.90
2022-11-04T19:37:16.232Z,1.80
2022-11-04T19:39:45.752Z,1.50
2022-11-04T19:42:36.141Z,1.60
2022-11-04T19:45:05.632Z,5.28
2022-11-04T19:47:34.056Z,3.03
2022-11-04T19:50:02.797Z,2.40
2022-11-04T19:52:32.354Z,1.98
2022-11-04T19:55:00.952Z,1.65
2022-11-04T19:57:29.740Z,1.98
2022-11-04T19:59:59.113Z,2.00
2022-11-04T20:02:27.905Z,1.92
2022-11-04T20:04:56.697Z,2.20
2022-11-04T20:07:25.320Z,2.25
2022-11-04T20:09:55.294Z,2.13
2022-11-04T20:12:42.201Z,2.22
2022-11-04T20:15:11.299Z,2.58
2022-11-04T20:17:39.961Z,2.28
2022-11-04T20:20:09.352Z,2.40
2022-11-04T20:22:38.306Z,2.42
2022-11-04T20:25:07.387Z,2.60
2022-11-04T20:27:35.820Z,2.60
2022-11-04T20:30:04.741Z,3.22
2022-11-04T20:32:35.042Z,2.95
2022-11-04T20:35:03.880Z,2.85
2022-11-04T20:37:32.494Z,2.55
2022-11-04T20:40:01.157Z,2.75
2022-11-04T20:42:29.861Z,3.03
2022-11-04T20:44:58.556Z,3.00
2022-11-04T20:47:27.169Z,3.13
2022-11-04T20:49:55.906Z,2.65
2022-11-04T20:52:24.422Z,3.00
2022-11-04T20:54:53.133Z,2.83
2022-11-04T20:57:22.989Z,3.58
2022-11-04T20:59:51.867Z,2.75
2022-11-04T21:02:21.199Z,2.58
2022-11-04T21:04:49.720Z,2.70
2022-11-04T21:07:19.338Z,3.35
2022-11-04T21:09:48.025Z,3.08
2022-11-04T21:12:16.771Z,3.50
2022-11-04T21:14:45.448Z,3.30
2022-11-04T21:17:14.169Z,3.70
2022-11-04T21:19:42.963Z,3.17
2022-11-04T21:22:11.933Z,3.63
2022-11-04T21:24:40.837Z,3.35
2022-11-04T21:27:09.821Z,2.97
2022-11-04T21:29:38.468Z,3.65
2022-11-04T21:32:07.525Z,3.70
2022-11-04T21:34:36.222Z,2.97
2022-11-04T21:37:04.835Z,2.60
2022-11-04T21:39:33.517Z,2.80
2022-11-04T21:42:02.447Z,2.85
2022-11-04T21:44:31.057Z,2.55
2022-11-04T21:46:59.716Z,2.80
2022-11-04T21:49:28.812Z,2.50
2022-11-04T21:51:57.444Z,2.90
2022-11-04T21:54:26.068Z,3.25
2022-11-04T21:56:54.781Z,3.42
2022-11-04T21:59:23.486Z,2.92
2022-11-04T22:01:52.295Z,3.28
2022-11-04T22:04:21.077Z,2.92
2022-11-04T22:06:49.861Z,2.75
2022-11-04T22:09:18.489Z,2.75
2022-11-04T22:11:47.197Z,2.65
2022-11-04T22:14:15.905Z,3.00
2022-11-04T22:16:44.708Z,3.40
2022-11-04T22:19:14.972Z,3.22
2022-11-04T22:21:46.062Z,2.92
2022-11-04T22:24:18.012Z,3.25
2022-11-04T22:26:47.475Z,3.08
2022-11-04T22:29:16.114Z,3.33
2022-11-04T22:31:45.219Z,3.17
2022-11-04T22:34:13.893Z,3.90
2022-11-04T22:36:42.613Z,3.28
2022-11-04T22:39:16.917Z,3.33
2022-11-04T22:41:47.594Z,3.45
2022-11-04T22:44:16.574Z,3.60
2022-11-04T22:46:45.172Z,3.67
2022-11-04T22:49:15.830Z,3.90
2022-11-04T22:51:44.263Z,4.45
2022-11-04T22:54:12.708Z,4.10
2022-11-04T22:56:41.350Z,4.22
2022-11-04T22:59:10.180Z,3.92
2022-11-04T23:01:39.353Z,3.80
2022-11-04T23:04:13.047Z,4.32
2022-11-04T23:06:42.490Z,3.92
2022-11-04T23:09:13.962Z,4.68
2022-11-04T23:12:00.357Z,4.38
2022-11-04T23:14:41.324Z,4.80
2022-11-04T23:17:36.205Z,4.93
2022-11-04T23:20:09.350Z,4.05
2022-11-04T23:22:56.732Z,4.85
2022-11-04T23:25:25.928Z,4.25
2022-11-04T23:28:14.608Z,4.60
2022-11-04T23:30:46.765Z,4.00
2022-11-04T23:33:16.852Z,3.53
2022-11-04T23:36:09.431Z,4.60
2022-11-04T23:38:38.086Z,3.92
2022-11-04T23:41:27.282Z,3.95
2022-11-04T23:43:55.975Z,3.28
2022-11-04T23:46:43.757Z,3.75
2022-11-04T23:49:31.857Z,3.78
2022-11-04T23:52:19.384Z,3.47
2022-11-04T23:55:06.047Z,3.25
2022-11-04T23:57:53.404Z,5.95
